AI6506 VOHS-VECC
Flight info
| Callsign | AI6506 |
|---|---|
| Flight time | 1h 39m |
| Altitude | 370 |
| Route | VOHS/27L N0447F370 VIRKO5 SAPNU W41 NOLOV DCT DORIL DCT MEPOL DCT SURUP DCT KAKID KAKI2A VECC/19L |
| Aircraft | A320/M-SDGFR/SUR/E2 |
Departure
| Time | 2026-04-23 20:25 |
|---|---|
| Airport | Rajiv Gandhi International Airport (VOHS) |
Arrival
| Time | 2026-04-23 22:04 |
|---|---|
| Airport | Netaji Subhash Chandra Bose International Airport (VECC) |
| Time | Latitude | Longitude | Altitude | Speed | Heading |
|---|---|---|---|---|---|
| 2026-04-23 19:51 | 17.23427 | 78.43246 | 1998 ft | 0 kts | 0° |
| 2026-04-23 20:11 | 17.23411 | 78.43246 | 1998 ft | 4 kts | 0° |
| 2026-04-23 20:12 | 17.23384 | 78.43246 | 1997 ft | 4 kts | 358° |
| 2026-04-23 20:12 | 17.23361 | 78.43251 | 1994 ft | 4 kts | 305° |
| 2026-04-23 20:12 | 17.23357 | 78.43269 | 1996 ft | 3 kts | 268° |
| 2026-04-23 20:12 | 17.23357 | 78.43287 | 1995 ft | 0 kts | 268° |
| 2026-04-23 20:16 | 17.23357 | 78.43281 | 1995 ft | 2 kts | 269° |
| 2026-04-23 20:16 | 17.23357 | 78.43264 | 1994 ft | 3 kts | 269° |
| 2026-04-23 20:16 | 17.23357 | 78.43232 | 1995 ft | 6 kts | 269° |
| 2026-04-23 20:17 | 17.23349 | 78.43177 | 1997 ft | 8 kts | 252° |
| 2026-04-23 20:17 | 17.23334 | 78.43120 | 1997 ft | 8 kts | 264° |
| 2026-04-23 20:17 | 17.23333 | 78.43048 | 1998 ft | 12 kts | 270° |
| 2026-04-23 20:17 | 17.23331 | 78.42940 | 1998 ft | 17 kts | 268° |
| 2026-04-23 20:18 | 17.23330 | 78.42804 | 1998 ft | 21 kts | 269° |
| 2026-04-23 20:18 | 17.23295 | 78.42735 | 1998 ft | 7 kts | 193° |
| 2026-04-23 20:18 | 17.23252 | 78.42699 | 1997 ft | 10 kts | 245° |
| 2026-04-23 20:18 | 17.23237 | 78.42619 | 1997 ft | 13 kts | 265° |
| 2026-04-23 20:19 | 17.23235 | 78.42520 | 1998 ft | 14 kts | 268° |
| 2026-04-23 20:19 | 17.23232 | 78.42411 | 2000 ft | 16 kts | 269° |
| 2026-04-23 20:19 | 17.23228 | 78.42291 | 2000 ft | 18 kts | 267° |
| 2026-04-23 20:19 | 17.23173 | 78.42237 | 1998 ft | 0 kts | 183° |
| 2026-04-23 20:21 | 17.23164 | 78.42237 | 1996 ft | 3 kts | 183° |
| 2026-04-23 20:21 | 17.23125 | 78.42235 | 1997 ft | 8 kts | 187° |
| 2026-04-23 20:21 | 17.23076 | 78.42179 | 1997 ft | 14 kts | 255° |
| 2026-04-23 20:21 | 17.23070 | 78.42061 | 1997 ft | 19 kts | 270° |
| 2026-04-23 20:22 | 17.23068 | 78.41900 | 1994 ft | 25 kts | 269° |
| 2026-04-23 20:22 | 17.23066 | 78.41706 | 1995 ft | 28 kts | 270° |
| 2026-04-23 20:22 | 17.23064 | 78.41499 | 1995 ft | 29 kts | 269° |
| 2026-04-23 20:22 | 17.23031 | 78.41340 | 1994 ft | 17 kts | 221° |
| 2026-04-23 20:23 | 17.22940 | 78.41304 | 1996 ft | 7 kts | 173° |
| 2026-04-23 20:23 | 17.22937 | 78.41305 | 1996 ft | 0 kts | 173° |
| 2026-04-23 20:23 | 17.22915 | 78.41308 | 1996 ft | 9 kts | 172° |
| 2026-04-23 20:23 | 17.22858 | 78.41349 | 1998 ft | 9 kts | 101° |
| 2026-04-23 20:24 | 17.22858 | 78.41371 | 1999 ft | 10 kts | 91° |
| 2026-04-23 20:24 | 17.22861 | 78.41693 | 1997 ft | 81 kts | 89° |
| 2026-04-23 20:24 | 17.22872 | 78.42506 | 1993 ft | 140 kts | 89° |
| 2026-04-23 20:24 | 17.22888 | 78.43696 | 2005 ft | 185 kts | 89° |
| 2026-04-23 20:25 | 17.22897 | 78.45006 | 2752 ft | 178 kts | 90° |
| 2026-04-23 20:25 | 17.22921 | 78.46309 | 3353 ft | 184 kts | 90° |
| 2026-04-23 20:25 | 17.22947 | 78.47727 | 3484 ft | 205 kts | 90° |
| 2026-04-23 20:25 | 17.22974 | 78.49298 | 3616 ft | 229 kts | 90° |
| 2026-04-23 20:26 | 17.23002 | 78.51055 | 3846 ft | 253 kts | 90° |
| 2026-04-23 20:26 | 17.23030 | 78.52964 | 4235 ft | 269 kts | 90° |
| 2026-04-23 20:26 | 17.23176 | 78.54938 | 4865 ft | 275 kts | 83° |
| 2026-04-23 20:26 | 17.23484 | 78.56934 | 5545 ft | 280 kts | 80° |
| 2026-04-23 20:27 | 17.23855 | 78.58940 | 6260 ft | 283 kts | 79° |
| 2026-04-23 20:27 | 17.24252 | 78.60968 | 6937 ft | 286 kts | 78° |
| 2026-04-23 20:27 | 17.24652 | 78.63013 | 7646 ft | 288 kts | 78° |
| 2026-04-23 20:27 | 17.25052 | 78.65074 | 8362 ft | 290 kts | 78° |
| 2026-04-23 20:28 | 17.25451 | 78.67153 | 9073 ft | 293 kts | 78° |
| 2026-04-23 20:28 | 17.25844 | 78.69250 | 9809 ft | 295 kts | 78° |
| 2026-04-23 20:28 | 17.26110 | 78.70650 | 10208 ft | 300 kts | 78° |
| 2026-04-23 20:28 | 17.26526 | 78.72869 | 10381 ft | 322 kts | 78° |
| 2026-04-23 20:29 | 17.26967 | 78.75244 | 10574 ft | 341 kts | 78° |
| 2026-04-23 20:29 | 17.27419 | 78.77712 | 11080 ft | 348 kts | 78° |
| 2026-04-23 20:29 | 17.27874 | 78.80213 | 11706 ft | 352 kts | 78° |
| 2026-04-23 20:29 | 17.28339 | 78.82768 | 12368 ft | 354 kts | 78° |
| 2026-04-23 20:30 | 17.28805 | 78.85308 | 13005 ft | 357 kts | 77° |
| 2026-04-23 20:30 | 17.29749 | 78.90442 | 14220 ft | 362 kts | 77° |
| 2026-04-23 20:30 | 17.30221 | 78.93010 | 14751 ft | 366 kts | 78° |
| 2026-04-23 20:31 | 17.30703 | 78.95643 | 15279 ft | 370 kts | 78° |
| 2026-04-23 20:31 | 17.31187 | 78.98305 | 15801 ft | 375 kts | 78° |
| 2026-04-23 20:31 | 17.31674 | 79.00986 | 16305 ft | 379 kts | 78° |
| 2026-04-23 20:31 | 17.32170 | 79.03706 | 16821 ft | 382 kts | 78° |
| 2026-04-23 20:32 | 17.32673 | 79.06459 | 17329 ft | 386 kts | 78° |
| 2026-04-23 20:32 | 17.33178 | 79.09228 | 17876 ft | 389 kts | 78° |
| 2026-04-23 20:32 | 17.33687 | 79.12018 | 18359 ft | 392 kts | 78° |
| 2026-04-23 20:32 | 17.34200 | 79.14836 | 18759 ft | 396 kts | 79° |
| 2026-04-23 20:33 | 17.34719 | 79.17688 | 19178 ft | 400 kts | 79° |
| 2026-04-23 20:33 | 17.35242 | 79.20559 | 19597 ft | 403 kts | 79° |
| 2026-04-23 20:33 | 17.35768 | 79.23456 | 20010 ft | 407 kts | 79° |
| 2026-04-23 20:33 | 17.36298 | 79.26384 | 20415 ft | 410 kts | 79° |
| 2026-04-23 20:34 | 17.36832 | 79.29331 | 20805 ft | 414 kts | 79° |
| 2026-04-23 20:34 | 17.37370 | 79.32304 | 21205 ft | 418 kts | 80° |
| 2026-04-23 20:34 | 17.37910 | 79.35303 | 21598 ft | 421 kts | 80° |
| 2026-04-23 20:34 | 17.38455 | 79.38327 | 21980 ft | 425 kts | 80° |
| 2026-04-23 20:35 | 17.39006 | 79.41376 | 22356 ft | 428 kts | 80° |
| 2026-04-23 20:35 | 17.39564 | 79.44458 | 22689 ft | 432 kts | 80° |
| 2026-04-23 20:35 | 17.40127 | 79.47567 | 23017 ft | 437 kts | 80° |
| 2026-04-23 20:35 | 17.40685 | 79.50659 | 23353 ft | 438 kts | 80° |
| 2026-04-23 20:36 | 17.41246 | 79.53779 | 23469 ft | 419 kts | 81° |
| 2026-04-23 20:36 | 17.41772 | 79.56710 | 23573 ft | 417 kts | 81° |
| 2026-04-23 20:36 | 17.42312 | 79.59731 | 23672 ft | 427 kts | 81° |
| 2026-04-23 20:36 | 17.42863 | 79.62810 | 23785 ft | 437 kts | 81° |
| 2026-04-23 20:37 | 17.43427 | 79.65969 | 23931 ft | 445 kts | 81° |
| 2026-04-23 20:37 | 17.44003 | 79.69178 | 24182 ft | 449 kts | 81° |
| 2026-04-23 20:37 | 17.44582 | 79.72405 | 24449 ft | 453 kts | 81° |
| 2026-04-23 20:37 | 17.45164 | 79.75660 | 24728 ft | 456 kts | 81° |
| 2026-04-23 20:38 | 17.45750 | 79.78942 | 25006 ft | 460 kts | 81° |
| 2026-04-23 20:38 | 17.46339 | 79.82238 | 25268 ft | 463 kts | 81° |
| 2026-04-23 20:38 | 17.46933 | 79.85568 | 25534 ft | 466 kts | 81° |
| 2026-04-23 20:38 | 17.47527 | 79.88919 | 25785 ft | 470 kts | 81° |
| 2026-04-23 20:39 | 17.48126 | 79.92294 | 26051 ft | 473 kts | 81° |
| 2026-04-23 20:39 | 17.48729 | 79.95688 | 26316 ft | 476 kts | 81° |
| 2026-04-23 20:39 | 17.49336 | 79.99105 | 26585 ft | 479 kts | 81° |
| 2026-04-23 20:39 | 17.49946 | 80.02544 | 26839 ft | 482 kts | 81° |
| 2026-04-23 20:40 | 17.50571 | 80.06002 | 27097 ft | 485 kts | 79° |
| 2026-04-23 20:40 | 17.51469 | 80.09425 | 27333 ft | 490 kts | 75° |
| 2026-04-23 20:40 | 17.52459 | 80.12849 | 27589 ft | 492 kts | 75° |
| 2026-04-23 20:40 | 17.53455 | 80.16291 | 27842 ft | 495 kts | 75° |
| 2026-04-23 20:41 | 17.54459 | 80.19759 | 28062 ft | 499 kts | 75° |
| 2026-04-23 20:41 | 17.55467 | 80.23256 | 28281 ft | 502 kts | 75° |
| 2026-04-23 20:41 | 17.56463 | 80.26720 | 28524 ft | 505 kts | 75° |
| 2026-04-23 20:41 | 17.57479 | 80.30253 | 28766 ft | 508 kts | 75° |
| 2026-04-23 20:42 | 17.58496 | 80.33803 | 28972 ft | 510 kts | 75° |
| 2026-04-23 20:42 | 17.59517 | 80.37376 | 29194 ft | 513 kts | 75° |
| 2026-04-23 20:42 | 17.60542 | 80.40965 | 29408 ft | 516 kts | 75° |
| 2026-04-23 20:42 | 17.61575 | 80.44573 | 29619 ft | 518 kts | 75° |
| 2026-04-23 20:43 | 17.62614 | 80.48199 | 29830 ft | 521 kts | 75° |
| 2026-04-23 20:43 | 17.63658 | 80.51844 | 30019 ft | 523 kts | 75° |
| 2026-04-23 20:43 | 17.64703 | 80.55501 | 30213 ft | 524 kts | 75° |
| 2026-04-23 20:43 | 17.65750 | 80.59174 | 30409 ft | 526 kts | 75° |
| 2026-04-23 20:44 | 17.66797 | 80.62850 | 30605 ft | 527 kts | 75° |
| 2026-04-23 20:44 | 17.67849 | 80.66535 | 30898 ft | 526 kts | 76° |
| 2026-04-23 20:44 | 17.68899 | 80.70209 | 31177 ft | 526 kts | 76° |
| 2026-04-23 20:44 | 17.69947 | 80.73881 | 31455 ft | 526 kts | 76° |
| 2026-04-23 20:45 | 17.70994 | 80.77553 | 31732 ft | 525 kts | 76° |
| 2026-04-23 20:45 | 17.72035 | 80.81222 | 32001 ft | 525 kts | 76° |
| 2026-04-23 20:45 | 17.73074 | 80.84893 | 32296 ft | 525 kts | 76° |
| 2026-04-23 20:45 | 17.74112 | 80.88559 | 32572 ft | 525 kts | 76° |
| 2026-04-23 20:46 | 17.75153 | 80.92229 | 32842 ft | 524 kts | 76° |
| 2026-04-23 20:46 | 17.76192 | 80.95888 | 33123 ft | 524 kts | 77° |
| 2026-04-23 20:46 | 17.77219 | 80.99508 | 33402 ft | 523 kts | 77° |
| 2026-04-23 20:46 | 17.78256 | 81.03167 | 33688 ft | 523 kts | 77° |
| 2026-04-23 20:47 | 17.79288 | 81.06823 | 33956 ft | 522 kts | 77° |
| 2026-04-23 20:47 | 17.80316 | 81.10475 | 34206 ft | 522 kts | 77° |
| 2026-04-23 20:47 | 17.81342 | 81.14127 | 34457 ft | 521 kts | 77° |
| 2026-04-23 20:47 | 17.82370 | 81.17777 | 34701 ft | 521 kts | 77° |
| 2026-04-23 20:48 | 17.83492 | 81.21392 | 34944 ft | 523 kts | 70° |
| 2026-04-23 20:48 | 17.85059 | 81.24843 | 35190 ft | 525 kts | 62° |
| 2026-04-23 20:48 | 17.86876 | 81.28166 | 35403 ft | 525 kts | 62° |
| 2026-04-23 20:48 | 17.88689 | 81.31493 | 35641 ft | 524 kts | 62° |
| 2026-04-23 20:49 | 17.90493 | 81.34811 | 35885 ft | 523 kts | 61° |
| 2026-04-23 20:49 | 17.92296 | 81.38132 | 36108 ft | 523 kts | 61° |
| 2026-04-23 20:49 | 17.94094 | 81.41448 | 36317 ft | 522 kts | 61° |
| 2026-04-23 20:49 | 17.95890 | 81.44762 | 36527 ft | 522 kts | 61° |
| 2026-04-23 20:50 | 17.97681 | 81.48071 | 36717 ft | 521 kts | 61° |
| 2026-04-23 20:50 | 17.99474 | 81.51382 | 36793 ft | 521 kts | 61° |
| 2026-04-23 20:50 | 18.03049 | 81.57990 | 36794 ft | 520 kts | 61° |
| 2026-04-23 20:51 | 18.06625 | 81.64600 | 36791 ft | 520 kts | 61° |
| 2026-04-23 20:51 | 18.10175 | 81.71159 | 36800 ft | 519 kts | 61° |
| 2026-04-23 20:52 | 18.13738 | 81.77754 | 36797 ft | 519 kts | 61° |
| 2026-04-23 20:52 | 18.17311 | 81.84401 | 36804 ft | 519 kts | 61° |
| 2026-04-23 20:53 | 18.20864 | 81.91007 | 36798 ft | 518 kts | 61° |
| 2026-04-23 20:53 | 18.24419 | 81.97608 | 36819 ft | 519 kts | 61° |
| 2026-04-23 20:54 | 18.27974 | 82.04214 | 36825 ft | 519 kts | 61° |
| 2026-04-23 20:54 | 18.31528 | 82.10828 | 36838 ft | 519 kts | 62° |
| 2026-04-23 20:55 | 18.35050 | 82.17416 | 36833 ft | 520 kts | 62° |
| 2026-04-23 20:55 | 18.38597 | 82.24045 | 36834 ft | 520 kts | 61° |
| 2026-04-23 20:56 | 18.42148 | 82.30680 | 36834 ft | 520 kts | 62° |
| 2026-04-23 20:56 | 18.45702 | 82.37325 | 36837 ft | 520 kts | 61° |
| 2026-04-23 20:57 | 18.49252 | 82.43971 | 36855 ft | 520 kts | 62° |
| 2026-04-23 20:57 | 18.52793 | 82.50617 | 36857 ft | 520 kts | 62° |
| 2026-04-23 20:58 | 18.56341 | 82.57264 | 36873 ft | 520 kts | 62° |
| 2026-04-23 20:58 | 18.59882 | 82.63916 | 36870 ft | 520 kts | 62° |
| 2026-04-23 20:59 | 18.63413 | 82.70573 | 36870 ft | 520 kts | 62° |
| 2026-04-23 20:59 | 18.66943 | 82.77227 | 36875 ft | 520 kts | 62° |
| 2026-04-23 21:00 | 18.70466 | 82.83879 | 36866 ft | 520 kts | 62° |
| 2026-04-23 21:00 | 18.73997 | 82.90531 | 36858 ft | 520 kts | 62° |
| 2026-04-23 21:01 | 18.77529 | 82.97189 | 36858 ft | 520 kts | 62° |
| 2026-04-23 21:01 | 18.81031 | 83.03807 | 36840 ft | 520 kts | 62° |
| 2026-04-23 21:02 | 18.84558 | 83.10476 | 36843 ft | 520 kts | 62° |
| 2026-04-23 21:02 | 18.88070 | 83.17150 | 36826 ft | 520 kts | 62° |
| 2026-04-23 21:03 | 18.91582 | 83.23825 | 36830 ft | 520 kts | 62° |
| 2026-04-23 21:03 | 18.95097 | 83.30494 | 36829 ft | 519 kts | 62° |
| 2026-04-23 21:04 | 18.98606 | 83.37162 | 36811 ft | 520 kts | 62° |
| 2026-04-23 21:04 | 19.02116 | 83.43838 | 36818 ft | 519 kts | 62° |
| 2026-04-23 21:05 | 19.05616 | 83.50523 | 36790 ft | 520 kts | 61° |
| 2026-04-23 21:05 | 19.09118 | 83.57208 | 36782 ft | 520 kts | 62° |
| 2026-04-23 21:06 | 19.12626 | 83.63900 | 36780 ft | 520 kts | 61° |
| 2026-04-23 21:06 | 19.16120 | 83.70590 | 36788 ft | 520 kts | 62° |
| 2026-04-23 21:07 | 19.19614 | 83.77285 | 36791 ft | 520 kts | 62° |
| 2026-04-23 21:07 | 19.23116 | 83.83980 | 36793 ft | 520 kts | 62° |
| 2026-04-23 21:08 | 19.26617 | 83.90686 | 36795 ft | 520 kts | 62° |
| 2026-04-23 21:08 | 19.30106 | 83.97385 | 36796 ft | 520 kts | 62° |
| 2026-04-23 21:09 | 19.33587 | 84.04088 | 36795 ft | 520 kts | 62° |
| 2026-04-23 21:09 | 19.37069 | 84.10801 | 36815 ft | 520 kts | 62° |
| 2026-04-23 21:10 | 19.40552 | 84.17516 | 36800 ft | 520 kts | 62° |
| 2026-04-23 21:10 | 19.44034 | 84.24234 | 36783 ft | 520 kts | 62° |
| 2026-04-23 21:11 | 19.47511 | 84.30969 | 36782 ft | 521 kts | 62° |
| 2026-04-23 21:11 | 19.50991 | 84.37703 | 36766 ft | 521 kts | 61° |
| 2026-04-23 21:12 | 19.54454 | 84.44398 | 36762 ft | 521 kts | 62° |
| 2026-04-23 21:12 | 19.57943 | 84.51142 | 36769 ft | 521 kts | 62° |
| 2026-04-23 21:13 | 19.61420 | 84.57890 | 36756 ft | 522 kts | 62° |
| 2026-04-23 21:13 | 19.64889 | 84.64645 | 36759 ft | 522 kts | 62° |
| 2026-04-23 21:14 | 19.68283 | 84.71450 | 36757 ft | 521 kts | 64° |
| 2026-04-23 21:14 | 19.71406 | 84.78390 | 36759 ft | 521 kts | 66° |
| 2026-04-23 21:15 | 19.74441 | 84.85367 | 36770 ft | 521 kts | 65° |
| 2026-04-23 21:15 | 19.77544 | 84.92322 | 36763 ft | 521 kts | 65° |
| 2026-04-23 21:16 | 19.80165 | 84.98080 | 36759 ft | 521 kts | 64° |
| 2026-04-23 21:16 | 19.83319 | 85.05013 | 36755 ft | 521 kts | 64° |
| 2026-04-23 21:17 | 19.86457 | 85.11961 | 36760 ft | 521 kts | 65° |
| 2026-04-23 21:17 | 19.89586 | 85.18912 | 36755 ft | 521 kts | 65° |
| 2026-04-23 21:18 | 19.92705 | 85.25866 | 36758 ft | 521 kts | 65° |
| 2026-04-23 21:18 | 19.95823 | 85.32821 | 36756 ft | 521 kts | 65° |
| 2026-04-23 21:19 | 19.98943 | 85.39773 | 36757 ft | 521 kts | 65° |
| 2026-04-23 21:19 | 20.02064 | 85.46734 | 36752 ft | 521 kts | 65° |
| 2026-04-23 21:20 | 20.05170 | 85.53695 | 36752 ft | 521 kts | 65° |
| 2026-04-23 21:20 | 20.08274 | 85.60656 | 36759 ft | 521 kts | 64° |
| 2026-04-23 21:21 | 20.11381 | 85.67618 | 36744 ft | 521 kts | 64° |
| 2026-04-23 21:21 | 20.14487 | 85.74594 | 36737 ft | 521 kts | 65° |
| 2026-04-23 21:22 | 20.17590 | 85.81571 | 36731 ft | 522 kts | 65° |
| 2026-04-23 21:22 | 20.20687 | 85.88556 | 36732 ft | 522 kts | 65° |
| 2026-04-23 21:23 | 20.23791 | 85.95545 | 36737 ft | 522 kts | 65° |
| 2026-04-23 21:23 | 20.26892 | 86.02530 | 36741 ft | 522 kts | 65° |
| 2026-04-23 21:24 | 20.29990 | 86.09525 | 36748 ft | 522 kts | 65° |
| 2026-04-23 21:24 | 20.33080 | 86.16525 | 36752 ft | 522 kts | 65° |
| 2026-04-23 21:25 | 20.36172 | 86.23530 | 36757 ft | 522 kts | 64° |
| 2026-04-23 21:25 | 20.39263 | 86.30533 | 36757 ft | 522 kts | 64° |
| 2026-04-23 21:26 | 20.42352 | 86.37551 | 36750 ft | 522 kts | 65° |
| 2026-04-23 21:26 | 20.45411 | 86.44522 | 36758 ft | 523 kts | 65° |
| 2026-04-23 21:27 | 20.48208 | 86.51668 | 36749 ft | 523 kts | 71° |
| 2026-04-23 21:27 | 20.50665 | 86.59027 | 36740 ft | 523 kts | 71° |
| 2026-04-23 21:28 | 20.53096 | 86.66287 | 36743 ft | 523 kts | 71° |
| 2026-04-23 21:28 | 20.55551 | 86.73596 | 36746 ft | 524 kts | 71° |
| 2026-04-23 21:29 | 20.57999 | 86.80919 | 36749 ft | 524 kts | 71° |
| 2026-04-23 21:29 | 20.60431 | 86.88247 | 36751 ft | 524 kts | 71° |
| 2026-04-23 21:30 | 20.62862 | 86.95577 | 36751 ft | 524 kts | 71° |
| 2026-04-23 21:30 | 20.65297 | 87.02900 | 36758 ft | 523 kts | 70° |
| 2026-04-23 21:31 | 20.67799 | 87.10203 | 36763 ft | 523 kts | 70° |
| 2026-04-23 21:31 | 20.70321 | 87.17492 | 36765 ft | 523 kts | 70° |
| 2026-04-23 21:32 | 20.72822 | 87.24785 | 36768 ft | 523 kts | 70° |
| 2026-04-23 21:32 | 20.75303 | 87.32086 | 36772 ft | 523 kts | 70° |
| 2026-04-23 21:33 | 20.77777 | 87.39390 | 36771 ft | 522 kts | 70° |
| 2026-04-23 21:33 | 20.80327 | 87.46666 | 36776 ft | 522 kts | 64° |
| 2026-04-23 21:34 | 20.84185 | 87.53171 | 36763 ft | 516 kts | 45° |
| 2026-04-23 21:34 | 20.89165 | 87.58666 | 36757 ft | 515 kts | 41° |
| 2026-04-23 21:35 | 20.94173 | 87.64145 | 36757 ft | 515 kts | 42° |
| 2026-04-23 21:35 | 20.99162 | 87.69662 | 36759 ft | 516 kts | 42° |
| 2026-04-23 21:36 | 21.06627 | 87.77901 | 36774 ft | 516 kts | 41° |
| 2026-04-23 21:37 | 21.11629 | 87.83402 | 36777 ft | 515 kts | 42° |
| 2026-04-23 21:37 | 21.16633 | 87.88911 | 36786 ft | 516 kts | 41° |
| 2026-04-23 21:38 | 21.21636 | 87.94431 | 36774 ft | 517 kts | 41° |
| 2026-04-23 21:38 | 21.26646 | 87.99970 | 36775 ft | 517 kts | 41° |
| 2026-04-23 21:39 | 21.31658 | 88.05507 | 36773 ft | 517 kts | 41° |
| 2026-04-23 21:39 | 21.34140 | 88.08246 | 36544 ft | 518 kts | 41° |
| 2026-04-23 21:39 | 21.36678 | 88.11053 | 35879 ft | 520 kts | 41° |
| 2026-04-23 21:39 | 21.39213 | 88.13859 | 34948 ft | 526 kts | 41° |
| 2026-04-23 21:40 | 21.41774 | 88.16695 | 33969 ft | 532 kts | 41° |
| 2026-04-23 21:40 | 21.44346 | 88.19550 | 32829 ft | 529 kts | 42° |
| 2026-04-23 21:40 | 21.46858 | 88.22353 | 32271 ft | 513 kts | 41° |
| 2026-04-23 21:40 | 21.49299 | 88.25080 | 31578 ft | 500 kts | 42° |
| 2026-04-23 21:41 | 21.51732 | 88.27666 | 30952 ft | 484 kts | 36° |
| 2026-04-23 21:41 | 21.54363 | 88.29808 | 30442 ft | 464 kts | 27° |
| 2026-04-23 21:41 | 21.57118 | 88.31471 | 29926 ft | 445 kts | 19° |
| 2026-04-23 21:41 | 21.59934 | 88.32680 | 29389 ft | 427 kts | 11° |
| 2026-04-23 21:42 | 21.62770 | 88.33543 | 28920 ft | 422 kts | 9° |
| 2026-04-23 21:42 | 21.65607 | 88.34377 | 28446 ft | 422 kts | 9° |
| 2026-04-23 21:42 | 21.68428 | 88.35213 | 27963 ft | 418 kts | 10° |
| 2026-04-23 21:42 | 21.71221 | 88.36045 | 27491 ft | 415 kts | 10° |
| 2026-04-23 21:43 | 21.73992 | 88.36871 | 27026 ft | 412 kts | 11° |
| 2026-04-23 21:43 | 21.76744 | 88.37690 | 26567 ft | 409 kts | 11° |
| 2026-04-23 21:43 | 21.79473 | 88.38504 | 26118 ft | 406 kts | 11° |
| 2026-04-23 21:43 | 21.82184 | 88.39312 | 25670 ft | 402 kts | 12° |
| 2026-04-23 21:44 | 21.84868 | 88.40112 | 25224 ft | 399 kts | 12° |
| 2026-04-23 21:44 | 21.87538 | 88.40906 | 24786 ft | 396 kts | 12° |
| 2026-04-23 21:44 | 21.90183 | 88.41693 | 24354 ft | 393 kts | 13° |
| 2026-04-23 21:44 | 21.92811 | 88.42474 | 23916 ft | 391 kts | 13° |
| 2026-04-23 21:45 | 21.95422 | 88.43250 | 23485 ft | 388 kts | 13° |
| 2026-04-23 21:45 | 21.98019 | 88.44020 | 22999 ft | 386 kts | 13° |
| 2026-04-23 21:45 | 22.00598 | 88.44785 | 22548 ft | 382 kts | 14° |
| 2026-04-23 21:45 | 22.03151 | 88.45544 | 22114 ft | 379 kts | 14° |
| 2026-04-23 21:46 | 22.05681 | 88.46295 | 21669 ft | 376 kts | 14° |
| 2026-04-23 21:46 | 22.08202 | 88.47042 | 21213 ft | 374 kts | 15° |
| 2026-04-23 21:46 | 22.10702 | 88.47786 | 20757 ft | 372 kts | 14° |
| 2026-04-23 21:46 | 22.13193 | 88.48529 | 20303 ft | 371 kts | 15° |
| 2026-04-23 21:47 | 22.15679 | 88.49271 | 19830 ft | 370 kts | 16° |
| 2026-04-23 21:47 | 22.18159 | 88.50013 | 19362 ft | 370 kts | 16° |
| 2026-04-23 21:47 | 22.20634 | 88.50754 | 18891 ft | 369 kts | 17° |
| 2026-04-23 21:47 | 22.23113 | 88.51497 | 18421 ft | 369 kts | 17° |
| 2026-04-23 21:48 | 22.25595 | 88.52239 | 17926 ft | 369 kts | 17° |
| 2026-04-23 21:48 | 22.28068 | 88.52977 | 17437 ft | 368 kts | 16° |
| 2026-04-23 21:48 | 22.30582 | 88.53446 | 16981 ft | 367 kts | 6° |
| 2026-04-23 21:48 | 22.33116 | 88.53707 | 16517 ft | 365 kts | 6° |
| 2026-04-23 21:49 | 22.35633 | 88.53972 | 16062 ft | 363 kts | 6° |
| 2026-04-23 21:49 | 22.38140 | 88.54237 | 15609 ft | 361 kts | 6° |
| 2026-04-23 21:49 | 22.40570 | 88.54494 | 15151 ft | 348 kts | 6° |
| 2026-04-23 21:49 | 22.42941 | 88.54748 | 14719 ft | 336 kts | 6° |
| 2026-04-23 21:50 | 22.45225 | 88.54992 | 14292 ft | 324 kts | 5° |
| 2026-04-23 21:50 | 22.47438 | 88.55226 | 13875 ft | 316 kts | 5° |
| 2026-04-23 21:50 | 22.49629 | 88.55457 | 13447 ft | 318 kts | 5° |
| 2026-04-23 21:50 | 22.51837 | 88.55690 | 13005 ft | 319 kts | 4° |
| 2026-04-23 21:51 | 22.54050 | 88.55924 | 12565 ft | 320 kts | 4° |
| 2026-04-23 21:51 | 22.56296 | 88.56163 | 12121 ft | 320 kts | 4° |
| 2026-04-23 21:51 | 22.58516 | 88.56400 | 11683 ft | 321 kts | 4° |
| 2026-04-23 21:51 | 22.60736 | 88.56636 | 11239 ft | 321 kts | 4° |
| 2026-04-23 21:52 | 22.62960 | 88.56872 | 10787 ft | 322 kts | 4° |
| 2026-04-23 21:52 | 22.65190 | 88.57108 | 10341 ft | 322 kts | 3° |
| 2026-04-23 21:52 | 22.67415 | 88.57345 | 10010 ft | 318 kts | 3° |
| 2026-04-23 21:52 | 22.69579 | 88.57577 | 9893 ft | 306 kts | 3° |
| 2026-04-23 21:53 | 22.71630 | 88.57795 | 9640 ft | 295 kts | 3° |
| 2026-04-23 21:53 | 22.73681 | 88.58000 | 9212 ft | 294 kts | 2° |
| 2026-04-23 21:53 | 22.75737 | 88.58196 | 8770 ft | 293 kts | 3° |
| 2026-04-23 21:53 | 22.77722 | 88.58384 | 8188 ft | 289 kts | 2° |
| 2026-04-23 21:54 | 22.79689 | 88.58570 | 7825 ft | 276 kts | 2° |
| 2026-04-23 21:54 | 22.81533 | 88.58750 | 7675 ft | 256 kts | 2° |
| 2026-04-23 21:54 | 22.83257 | 88.58921 | 7568 ft | 244 kts | 2° |
| 2026-04-23 21:54 | 22.84944 | 88.59087 | 7447 ft | 243 kts | 2° |
| 2026-04-23 21:55 | 22.86626 | 88.59302 | 7158 ft | 243 kts | 5° |
| 2026-04-23 21:55 | 22.88289 | 88.59566 | 6695 ft | 241 kts | 6° |
| 2026-04-23 21:55 | 22.89939 | 88.59843 | 6216 ft | 240 kts | 6° |
| 2026-04-23 21:55 | 22.91596 | 88.60121 | 5813 ft | 241 kts | 6° |
| 2026-04-23 21:56 | 22.93245 | 88.60397 | 5492 ft | 238 kts | 6° |
| 2026-04-23 21:56 | 22.94871 | 88.60501 | 5016 ft | 232 kts | 345° |
| 2026-04-23 21:56 | 22.96199 | 88.59604 | 4663 ft | 228 kts | 304° |
| 2026-04-23 21:56 | 22.96638 | 88.57997 | 4328 ft | 227 kts | 264° |
| 2026-04-23 21:57 | 22.95981 | 88.56470 | 3981 ft | 229 kts | 224° |
| 2026-04-23 21:57 | 22.94654 | 88.55498 | 3614 ft | 233 kts | 207° |
| 2026-04-23 21:57 | 22.93197 | 88.54750 | 3440 ft | 232 kts | 204° |
| 2026-04-23 21:57 | 22.91735 | 88.54005 | 3180 ft | 233 kts | 205° |
| 2026-04-23 21:58 | 22.90294 | 88.53201 | 2874 ft | 232 kts | 208° |
| 2026-04-23 21:58 | 22.89362 | 88.52640 | 2687 ft | 231 kts | 208° |
| 2026-04-23 21:58 | 22.87985 | 88.51764 | 2407 ft | 229 kts | 210° |
| 2026-04-23 21:58 | 22.86634 | 88.50865 | 2129 ft | 227 kts | 211° |
| 2026-04-23 21:59 | 22.85331 | 88.49974 | 2002 ft | 216 kts | 211° |
| 2026-04-23 21:59 | 22.84114 | 88.49127 | 1996 ft | 204 kts | 211° |
| 2026-04-23 21:59 | 22.82963 | 88.48318 | 2015 ft | 187 kts | 212° |
| 2026-04-23 22:00 | 22.81120 | 88.47015 | 1991 ft | 159 kts | 212° |
| 2026-04-23 22:00 | 22.80149 | 88.46519 | 1997 ft | 152 kts | 192° |
| 2026-04-23 22:00 | 22.79109 | 88.46373 | 1999 ft | 150 kts | 186° |
| 2026-04-23 22:00 | 22.78066 | 88.46253 | 2003 ft | 151 kts | 186° |
| 2026-04-23 22:01 | 22.77021 | 88.46152 | 1975 ft | 150 kts | 186° |
| 2026-04-23 22:01 | 22.75987 | 88.46019 | 1808 ft | 149 kts | 188° |
| 2026-04-23 22:01 | 22.74960 | 88.45874 | 1675 ft | 149 kts | 187° |
| 2026-04-23 22:01 | 22.73941 | 88.45762 | 1499 ft | 145 kts | 186° |
| 2026-04-23 22:02 | 22.72932 | 88.45654 | 1221 ft | 144 kts | 187° |
| 2026-04-23 22:02 | 22.71958 | 88.45536 | 1023 ft | 139 kts | 188° |
| 2026-04-23 22:02 | 22.70994 | 88.45420 | 800 ft | 142 kts | 185° |
| 2026-04-23 22:02 | 22.70019 | 88.45307 | 637 ft | 141 kts | 185° |
| 2026-04-23 22:03 | 22.69049 | 88.45198 | 410 ft | 141 kts | 183° |
| 2026-04-23 22:03 | 22.68075 | 88.45092 | 248 ft | 140 kts | 185° |
| 2026-04-23 22:03 | 22.67113 | 88.44971 | 69 ft | 138 kts | 185° |
| 2026-04-23 22:03 | 22.66208 | 88.44871 | 28 ft | 117 kts | 184° |
| 2026-04-23 22:04 | 22.65563 | 88.44793 | 29 ft | 69 kts | 186° |
| 2026-04-23 22:04 | 22.65203 | 88.44751 | 27 ft | 45 kts | 186° |
| 2026-04-23 22:04 | 22.64932 | 88.44678 | 24 ft | 38 kts | 208° |
| 2026-04-23 22:04 | 22.64724 | 88.44528 | 23 ft | 28 kts | 215° |
| 2026-04-23 22:05 | 22.64661 | 88.44416 | 24 ft | 13 kts | 276° |
| 2026-04-23 22:05 | 22.64662 | 88.44405 | 24 ft | 0 kts | 276° |
| 2026-04-23 22:06 | 22.64660 | 88.44394 | 24 ft | 5 kts | 258° |
| 2026-04-23 22:06 | 22.64610 | 88.44361 | 25 ft | 13 kts | 187° |
| 2026-04-23 22:07 | 22.64494 | 88.44346 | 24 ft | 21 kts | 186° |
| 2026-04-23 22:07 | 22.64327 | 88.44324 | 24 ft | 27 kts | 186° |
| 2026-04-23 22:07 | 22.64149 | 88.44303 | 24 ft | 25 kts | 186° |
| 2026-04-23 22:07 | 22.64013 | 88.44272 | 24 ft | 14 kts | 233° |
| 2026-04-23 22:08 | 22.64014 | 88.44181 | 23 ft | 11 kts | 272° |
| 2026-04-23 22:08 | 22.64014 | 88.44104 | 23 ft | 9 kts | 255° |
| 2026-04-23 22:08 | 22.63990 | 88.44038 | 23 ft | 10 kts | 247° |
| 2026-04-23 22:08 | 22.63957 | 88.43951 | 24 ft | 15 kts | 246° |
| 2026-04-23 22:09 | 22.63912 | 88.43841 | 23 ft | 14 kts | 248° |
| 2026-04-23 22:09 | 22.63908 | 88.43788 | 23 ft | 4 kts | 315° |
| 2026-04-23 22:09 | 22.63931 | 88.43780 | 23 ft | 3 kts | 346° |
| 2026-04-23 22:09 | 22.63948 | 88.43774 | 23 ft | 3 kts | 338° |
| 2026-04-23 22:10 | 22.63977 | 88.43760 | 23 ft | 4 kts | 337° |
| 2026-04-23 22:10 | 22.63978 | 88.43759 | 23 ft | 0 kts | 337° |
| 2026-04-23 22:18 | 22.81578 | 88.47340 | 1996 ft | 152 kts | 212° |
| 2026-04-23 22:18 | 22.77078 | 88.46157 | 1979 ft | 149 kts | 186° |
| 2026-04-23 22:18 | 22.69200 | 88.45213 | 452 ft | 140 kts | 183° |
| 2026-04-23 22:19 | 22.67974 | 88.45080 | 236 ft | 139 kts | 184° |
| 2026-04-23 22:19 | 22.67015 | 88.44958 | 56 ft | 137 kts | 184° |
| 2026-04-23 22:19 | 22.66151 | 88.44866 | 29 ft | 112 kts | 187° |
| 2026-04-23 22:19 | 22.67813 | 88.45060 | 210 ft | 139 kts | 185° |
| 2026-04-23 22:20 | 22.66804 | 88.44933 | 42 ft | 134 kts | 184° |
| 2026-04-23 22:20 | 22.65933 | 88.44839 | 29 ft | 99 kts | 187° |
| 2026-04-23 22:20 | 22.72394 | 88.45595 | 1112 ft | 141 kts | 187° |
| 2026-04-23 22:20 | 22.71382 | 88.45461 | 897 ft | 138 kts | 186° |
| 2026-04-23 22:21 | 22.70357 | 88.45348 | 685 ft | 141 kts | 185° |
| 2026-04-23 22:21 | 22.69339 | 88.45227 | 481 ft | 140 kts | 183° |
| 2026-04-23 22:21 | 22.68285 | 88.45116 | 297 ft | 137 kts | 185° |
| 2026-04-23 22:21 | 22.67225 | 88.44985 | 94 ft | 137 kts | 185° |
| 2026-04-23 22:22 | 22.66259 | 88.44875 | 28 ft | 118 kts | 183° |
| 2026-04-23 22:22 | 22.72166 | 88.45565 | 1065 ft | 141 kts | 188° |
| 2026-04-23 22:22 | 22.71174 | 88.45439 | 835 ft | 141 kts | 185° |
| 2026-04-23 22:22 | 22.70191 | 88.45328 | 670 ft | 144 kts | 185° |
| 2026-04-23 22:23 | 22.69189 | 88.45212 | 449 ft | 143 kts | 183° |
| 2026-04-23 22:23 | 22.68111 | 88.45096 | 254 ft | 145 kts | 185° |
| 2026-04-23 22:23 | 22.67052 | 88.44963 | 61 ft | 143 kts | 185° |
| 2026-04-23 22:23 | 22.66084 | 88.44856 | 30 ft | 116 kts | 187° |
| 2026-04-23 22:24 | 22.66188 | 88.44870 | 28 ft | 122 kts | 184° |
| 2026-04-23 22:24 | 22.70318 | 88.45343 | 687 ft | 144 kts | 185° |
| 2026-04-23 22:24 | 22.69303 | 88.45223 | 473 ft | 143 kts | 183° |
| 2026-04-23 22:24 | 22.68296 | 88.45117 | 294 ft | 144 kts | 185° |
| 2026-04-23 22:25 | 22.67284 | 88.44993 | 103 ft | 144 kts | 185° |
| 2026-04-23 22:25 | 22.66338 | 88.44881 | 28 ft | 127 kts | 184° |
| 2026-04-23 22:25 | 22.67361 | 88.45002 | 114 ft | 144 kts | 185° |
| 2026-04-23 22:25 | 22.66424 | 88.44890 | 29 ft | 130 kts | 183° |
| 2026-04-23 22:26 | 22.67539 | 88.45025 | 152 ft | 145 kts | 185° |
| 2026-04-23 22:26 | 22.66633 | 88.44913 | 36 ft | 135 kts | 184° |
| 2026-04-23 22:26 | 22.68335 | 88.45121 | 291 ft | 144 kts | 185° |
| 2026-04-23 22:26 | 22.69227 | 88.45216 | 459 ft | 143 kts | 183° |
| 2026-04-23 22:27 | 22.68178 | 88.45104 | 266 ft | 145 kts | 185° |
| 2026-04-23 22:27 | 22.67113 | 88.44971 | 68 ft | 144 kts | 185° |
| 2026-04-23 22:27 | 22.66151 | 88.44866 | 29 ft | 119 kts | 187° |
| 2026-04-23 22:27 | 22.75932 | 88.46011 | 1861 ft | 155 kts | 188° |
| 2026-04-23 22:28 | 22.74849 | 88.45861 | 1712 ft | 155 kts | 187° |
| 2026-04-23 22:28 | 22.70708 | 88.45389 | 748 ft | 143 kts | 185° |
| 2026-04-23 22:28 | 22.69693 | 88.45266 | 581 ft | 143 kts | 184° |
| 2026-04-23 22:28 | 22.68672 | 88.45158 | 367 ft | 143 kts | 185° |
| 2026-04-23 22:29 | 22.67636 | 88.45037 | 173 ft | 145 kts | 185° |
| 2026-04-23 22:29 | 22.66652 | 88.44915 | 37 ft | 136 kts | 184° |
| 2026-04-23 22:29 | 22.67567 | 88.45029 | 158 ft | 145 kts | 185° |
| 2026-04-23 22:29 | 22.66587 | 88.44908 | 34 ft | 134 kts | 183° |
| 2026-04-23 22:30 | 22.65781 | 88.44820 | 30 ft | 95 kts | 186° |
| 2026-04-23 22:30 | 22.69228 | 88.45216 | 460 ft | 143 kts | 183° |
| 2026-04-23 22:30 | 22.68177 | 88.45103 | 266 ft | 145 kts | 185° |
| 2026-04-23 22:30 | 22.67149 | 88.44975 | 81 ft | 144 kts | 185° |
| 2026-04-23 22:31 | 22.66214 | 88.44872 | 28 ft | 123 kts | 184° |
| 2026-04-23 22:31 | 22.71061 | 88.45427 | 823 ft | 144 kts | 185° |
| 2026-04-23 22:31 | 22.70046 | 88.45310 | 645 ft | 147 kts | 184° |
| 2026-04-23 22:31 | 22.69018 | 88.45195 | 404 ft | 142 kts | 183° |
| 2026-04-23 22:32 | 22.67983 | 88.45081 | 236 ft | 144 kts | 184° |
| 2026-04-23 22:32 | 22.66981 | 88.44954 | 50 ft | 143 kts | 184° |
| 2026-04-23 22:32 | 22.66069 | 88.44854 | 30 ft | 115 kts | 187° |
| 2026-04-23 22:32 | 22.65472 | 88.44782 | 28 ft | 65 kts | 186° |
| 2026-04-23 22:33 | 22.65136 | 88.44742 | 29 ft | 48 kts | 186° |
| 2026-04-23 22:33 | 22.68638 | 88.45154 | 362 ft | 143 kts | 185° |
| 2026-04-23 22:33 | 22.67640 | 88.45055 | 62 ft | 146 kts | 187° |
| 2026-04-23 22:33 | 22.66690 | 88.44924 | 71 ft | 128 kts | 185° |
| 2026-04-23 22:34 | 22.66348 | 88.44885 | 30 ft | 0 kts | 187° |
| 2026-04-23 22:34 | 22.66346 | 88.44884 | 30 ft | 3 kts | 187° |
| 2026-04-23 22:34 | 22.66079 | 88.44852 | 28 ft | 68 kts | 186° |
| 2026-04-23 22:34 | 22.65492 | 88.44789 | 28 ft | 51 kts | 186° |
| 2026-04-23 22:35 | 22.65334 | 88.44660 | 32 ft | 26 kts | 225° |
| 2026-04-23 22:35 | 22.65181 | 88.44543 | 25 ft | 28 kts | 180° |
| 2026-04-23 22:35 | 22.65015 | 88.44516 | 27 ft | 15 kts | 189° |
| 2026-04-23 22:35 | 22.65003 | 88.44471 | 24 ft | 8 kts | 282° |
| 2026-04-23 22:36 | 22.64975 | 88.44222 | 25 ft | 51 kts | 251° |
| 2026-04-23 22:36 | 22.66347 | 88.44884 | 30 ft | 0 kts | 187° |
| 2026-04-23 22:36 | 22.66342 | 88.44884 | 29 ft | 1 kts | 187° |
| 2026-04-23 22:36 | 22.66333 | 88.44883 | 28 ft | 1 kts | 187° |
| 2026-04-23 22:37 | 22.66322 | 88.44881 | 26 ft | 2 kts | 186° |
| 2026-04-23 22:37 | 22.66307 | 88.44879 | 28 ft | 2 kts | 186° |
| 2026-04-23 22:37 | 22.66292 | 88.44878 | 28 ft | 2 kts | 186° |
| 2026-04-23 22:37 | 22.66277 | 88.44876 | 29 ft | 2 kts | 185° |
| 2026-04-23 22:38 | 22.66262 | 88.44875 | 27 ft | 2 kts | 185° |
| 2026-04-23 22:38 | 22.66247 | 88.44874 | 26 ft | 2 kts | 184° |
| 2026-04-23 22:38 | 22.66232 | 88.44873 | 26 ft | 2 kts | 184° |
| 2026-04-23 22:38 | 22.66217 | 88.44871 | 27 ft | 2 kts | 184° |
| 2026-04-23 22:39 | 22.66202 | 88.44870 | 27 ft | 2 kts | 184° |
| 2026-04-23 22:39 | 22.66181 | 88.44867 | 27 ft | 9 kts | 189° |
| 2026-04-23 22:39 | 22.65734 | 88.44814 | 31 ft | 127 kts | 186° |
| 2026-04-23 22:39 | 22.64514 | 88.44673 | 29 ft | 216 kts | 186° |
| 2026-04-23 22:40 | 22.63047 | 88.44502 | 1423 ft | 194 kts | 187° |
| 2026-04-23 22:40 | 22.61714 | 88.44351 | 2769 ft | 202 kts | 185° |
| 2026-04-23 22:40 | 22.58538 | 88.46067 | 2261 ft | 333 kts | 132° |
| 2026-04-23 22:41 | 22.57254 | 88.48110 | 635 ft | 342 kts | 109° |
| 2026-04-23 22:41 | 22.57053 | 88.48759 | 32 ft | 1 kts | 160° |
| 2026-04-23 22:41 | 22.57053 | 88.48758 | 32 ft | 0 kts | 164° |